createdAt,value
2019-01-20T00:00:35.807Z,75.95
2019-01-20T00:03:07.800Z,76.17
2019-01-20T00:05:39.945Z,76.14
2019-01-20T00:08:12.030Z,75.92
2019-01-20T00:10:44.013Z,75.74
2019-01-20T00:13:16.011Z,75.77
2019-01-20T00:15:48.101Z,75.92
2019-01-20T00:18:20.096Z,75.96
2019-01-20T00:20:52.138Z,75.72
2019-01-20T00:23:24.132Z,75.89
2019-01-20T00:25:56.160Z,76.01
2019-01-20T00:28:28.178Z,75.83
2019-01-20T00:31:00.199Z,75.24
2019-01-20T00:33:32.195Z,75.78
2019-01-20T00:36:04.213Z,75.45
2019-01-20T00:38:36.181Z,75.86
2019-01-20T00:41:08.201Z,76.01
2019-01-20T00:43:40.204Z,76.00
2019-01-20T00:46:12.203Z,76.25
2019-01-20T00:48:44.210Z,76.19
2019-01-20T00:51:16.215Z,76.44
2019-01-20T00:53:48.187Z,76.97
2019-01-20T00:56:20.171Z,76.79
2019-01-20T00:58:52.195Z,76.63
2019-01-20T01:01:24.169Z,76.58
2019-01-20T01:03:56.193Z,76.56
2019-01-20T01:06:28.182Z,75.77
2019-01-20T01:09:00.198Z,76.00
2019-01-20T01:11:32.210Z,76.10
2019-01-20T01:14:04.195Z,75.93
2019-01-20T01:16:36.157Z,75.84
2019-01-20T01:19:08.158Z,75.41
2019-01-20T01:21:40.144Z,74.85
2019-01-20T01:24:12.111Z,75.23
2019-01-20T01:26:44.111Z,75.32
2019-01-20T01:29:16.129Z,75.54
2019-01-20T01:31:48.094Z,75.50
2019-01-20T01:34:20.062Z,75.34
2019-01-20T01:36:52.051Z,75.15
2019-01-20T01:39:24.039Z,74.76
2019-01-20T01:41:56.052Z,74.86
2019-01-20T01:44:28.052Z,74.94
2019-01-20T01:47:00.044Z,75.04
2019-01-20T01:49:32.047Z,75.16
2019-01-20T01:52:04.527Z,75.23
2019-01-20T01:54:36.549Z,75.06
2019-01-20T01:57:08.568Z,74.62
2019-01-20T01:59:40.585Z,74.71
2019-01-20T02:02:12.566Z,74.88
2019-01-20T02:04:44.627Z,74.59
2019-01-20T02:07:16.614Z,74.58
2019-01-20T02:09:48.602Z,74.52
2019-01-20T02:12:20.569Z,74.51
2019-01-20T02:14:52.821Z,74.43
2019-01-20T02:17:24.773Z,74.21
2019-01-20T02:19:56.770Z,73.83
2019-01-20T02:22:28.749Z,73.80
2019-01-20T02:25:00.720Z,74.36
2019-01-20T02:27:32.725Z,74.29
2019-01-20T02:30:08.046Z,74.18
2019-01-20T02:32:40.077Z,74.22
2019-01-20T02:35:12.097Z,74.05
2019-01-20T02:37:44.060Z,74.34
2019-01-20T02:40:16.154Z,74.54
2019-01-20T02:42:48.138Z,74.15
2019-01-20T02:45:20.110Z,74.22
2019-01-20T02:47:52.090Z,74.35
2019-01-20T02:50:24.064Z,74.44
2019-01-20T02:52:56.047Z,74.56
2019-01-20T02:55:28.034Z,74.59
2019-01-20T02:58:01.959Z,74.63
2019-01-20T03:00:33.899Z,74.77
2019-01-20T03:03:05.898Z,74.63
2019-01-20T03:05:37.877Z,74.32
2019-01-20T03:08:09.858Z,74.20
2019-01-20T03:10:41.891Z,74.33
2019-01-20T03:13:13.868Z,74.18
2019-01-20T03:15:45.819Z,74.49
2019-01-20T03:18:17.824Z,74.60
2019-01-20T03:20:49.797Z,74.37
2019-01-20T03:23:21.781Z,74.46
2019-01-20T03:25:53.753Z,74.07
2019-01-20T03:28:25.762Z,74.04
2019-01-20T03:30:57.728Z,73.94
2019-01-20T03:33:29.726Z,73.60
2019-01-20T03:36:01.700Z,73.75
2019-01-20T03:38:33.699Z,73.90
2019-01-20T03:41:05.680Z,74.14
2019-01-20T03:43:37.668Z,74.38
2019-01-20T03:46:09.632Z,74.23
2019-01-20T03:48:41.639Z,74.45
2019-01-20T03:51:13.636Z,74.44
2019-01-20T03:53:45.596Z,74.57
2019-01-20T03:56:17.591Z,74.19
2019-01-20T03:58:49.613Z,74.02
2019-01-20T04:01:21.581Z,74.07
2019-01-20T04:03:53.559Z,74.01
2019-01-20T04:06:25.509Z,74.10
2019-01-20T04:08:57.508Z,74.24
2019-01-20T04:11:29.468Z,74.13
2019-01-20T04:14:01.444Z,74.82
2019-01-20T04:16:33.393Z,74.16
2019-01-20T04:19:05.375Z,74.19
2019-01-20T04:21:37.344Z,74.15
2019-01-20T04:24:09.367Z,74.14
2019-01-20T04:26:41.318Z,74.10
2019-01-20T04:29:13.353Z,74.07
2019-01-20T04:31:45.333Z,74.23
2019-01-20T04:34:17.325Z,74.45
2019-01-20T04:36:49.315Z,73.95
2019-01-20T04:39:21.300Z,74.29
2019-01-20T04:41:53.292Z,74.46
2019-01-20T04:44:25.259Z,74.50
2019-01-20T04:46:57.244Z,74.54
2019-01-20T04:49:29.229Z,74.21
2019-01-20T04:52:01.208Z,73.97
2019-01-20T04:54:33.174Z,74.40
2019-01-20T04:57:05.152Z,74.27
2019-01-20T04:59:37.101Z,74.43
2019-01-20T05:02:10.396Z,74.39
2019-01-20T05:04:42.362Z,74.40
2019-01-20T05:07:14.367Z,74.44
2019-01-20T05:09:46.414Z,74.46
2019-01-20T05:12:18.497Z,74.03
2019-01-20T05:14:50.477Z,74.59
2019-01-20T05:17:22.470Z,74.48
2019-01-20T05:19:54.419Z,73.90
2019-01-20T05:22:26.407Z,74.16
2019-01-20T05:24:58.382Z,74.37
2019-01-20T05:27:30.362Z,74.34
2019-01-20T05:30:02.902Z,74.53
2019-01-20T05:32:34.925Z,73.78
2019-01-20T05:35:07.617Z,74.48
2019-01-20T05:37:39.609Z,74.23
2019-01-20T05:40:12.771Z,74.00
2019-01-20T05:42:46.351Z,74.37
2019-01-20T05:45:20.683Z,74.47
2019-01-20T05:47:52.706Z,74.25
2019-01-20T05:50:24.732Z,73.99
2019-01-20T05:52:56.696Z,74.08
2019-01-20T05:55:28.675Z,74.32
2019-01-20T05:58:00.687Z,74.50
2019-01-20T06:00:33.148Z,74.35
2019-01-20T06:03:05.145Z,74.58
2019-01-20T06:05:37.115Z,74.56
2019-01-20T06:08:09.101Z,74.67
2019-01-20T06:10:41.119Z,74.36
2019-01-20T06:13:13.091Z,74.70
2019-01-20T06:15:45.087Z,74.78
2019-01-20T06:18:17.076Z,74.69
2019-01-20T06:20:49.041Z,74.39
2019-01-20T06:23:21.031Z,74.58
2019-01-20T06:25:52.979Z,74.50
2019-01-20T06:28:24.959Z,74.48
2019-01-20T06:30:56.973Z,74.57
2019-01-20T06:33:28.953Z,74.40
2019-01-20T06:36:00.933Z,74.67
2019-01-20T06:38:32.914Z,74.36
2019-01-20T06:41:04.937Z,74.58
2019-01-20T06:43:36.944Z,74.50
2019-01-20T06:46:08.915Z,74.55
2019-01-20T06:48:40.915Z,73.74
2019-01-20T06:51:12.901Z,73.99
2019-01-20T06:53:44.910Z,74.10
2019-01-20T06:56:16.878Z,74.10
2019-01-20T06:58:48.875Z,73.91
2019-01-20T07:01:20.853Z,74.22
2019-01-20T07:03:53.343Z,73.94
2019-01-20T07:06:25.343Z,74.36
2019-01-20T07:08:57.311Z,74.33
2019-01-20T07:11:29.314Z,74.11
2019-01-20T07:14:01.297Z,73.93
2019-01-20T07:16:33.312Z,74.24
2019-01-20T07:19:05.260Z,74.19
2019-01-20T07:21:37.232Z,74.48
2019-01-20T07:24:09.202Z,74.49
2019-01-20T07:26:41.163Z,74.30
2019-01-20T07:29:13.132Z,74.06
2019-01-20T07:31:45.375Z,74.24
2019-01-20T07:34:17.405Z,74.39
2019-01-20T07:36:49.402Z,74.27
2019-01-20T07:39:21.384Z,74.02
2019-01-20T07:41:53.386Z,74.14
2019-01-20T07:44:25.405Z,73.55
2019-01-20T07:46:57.387Z,73.46
2019-01-20T07:49:29.391Z,73.02
2019-01-20T07:52:01.420Z,73.21
2019-01-20T07:54:33.403Z,73.38
2019-01-20T07:57:06.032Z,73.15
2019-01-20T07:59:37.997Z,73.10
2019-01-20T08:02:10.018Z,73.03
2019-01-20T08:04:42.065Z,73.25
2019-01-20T08:07:14.145Z,73.27
2019-01-20T08:09:46.176Z,72.98
2019-01-20T08:12:23.481Z,72.74
2019-01-20T08:14:52.072Z,72.63
2019-01-20T08:17:24.084Z,72.73
2019-01-20T08:19:56.091Z,71.81
2019-01-20T08:22:28.104Z,71.67
2019-01-20T08:25:01.251Z,72.77
2019-01-20T08:27:33.255Z,73.18
2019-01-20T08:30:08.544Z,72.90
2019-01-20T08:32:40.596Z,72.70
2019-01-20T08:35:13.021Z,71.86
2019-01-20T08:37:45.133Z,72.11
2019-01-20T08:40:42.492Z,72.79
2019-01-20T08:43:14.478Z,73.29
2019-01-20T08:46:24.287Z,72.65
2019-01-20T08:48:56.353Z,72.77
2019-01-20T08:51:29.168Z,71.02
2019-01-20T08:54:02.992Z,70.86
2019-01-20T08:56:34.978Z,71.16
2019-01-20T08:59:06.977Z,71.24
2019-01-20T09:01:39.041Z,69.94
2019-01-20T09:04:11.043Z,70.16
2019-01-20T09:06:43.079Z,70.94
2019-01-20T09:09:15.086Z,70.97
2019-01-20T09:11:48.771Z,71.10
2019-01-20T09:14:20.746Z,72.06
2019-01-20T09:16:52.770Z,72.03
2019-01-20T09:19:24.822Z,72.19
2019-01-20T09:21:56.827Z,71.49
2019-01-20T09:24:28.903Z,71.38
2019-01-20T09:27:00.931Z,70.70
2019-01-20T09:29:32.948Z,71.21
2019-01-20T09:32:04.999Z,70.49
2019-01-20T09:34:37.059Z,70.02
2019-01-20T09:37:09.113Z,69.85
2019-01-20T09:39:41.152Z,70.02
2019-01-20T09:42:13.189Z,70.17
2019-01-20T09:44:45.189Z,68.74
2019-01-20T09:47:17.177Z,68.54
2019-01-20T09:49:49.241Z,68.70
2019-01-20T09:52:21.267Z,68.61
2019-01-20T09:54:53.362Z,67.82
2019-01-20T09:57:25.421Z,67.83
2019-01-20T09:59:57.533Z,67.39
2019-01-20T10:02:29.594Z,67.19
2019-01-20T10:05:01.577Z,66.86
2019-01-20T10:07:33.610Z,67.16
2019-01-20T10:10:07.176Z,67.00
2019-01-20T10:12:58.666Z,66.87
2019-01-20T10:15:30.659Z,67.54
2019-01-20T10:18:02.702Z,68.09
2019-01-20T10:20:34.695Z,67.66
2019-01-20T10:23:06.725Z,68.10
2019-01-20T10:25:38.792Z,68.68
2019-01-20T10:28:13.395Z,68.46
2019-01-20T10:30:45.454Z,68.21
2019-01-20T10:33:17.501Z,67.13
2019-01-20T10:35:53.867Z,67.64
2019-01-20T10:38:25.940Z,67.56
2019-01-20T10:40:57.973Z,67.78
2019-01-20T10:43:30.072Z,67.39
2019-01-20T10:46:02.116Z,67.82
2019-01-20T10:48:34.140Z,68.26
2019-01-20T10:51:06.166Z,67.92
2019-01-20T10:53:38.353Z,68.11
2019-01-20T10:56:10.335Z,67.95
2019-01-20T10:58:42.415Z,67.37
2019-01-20T11:01:14.478Z,66.49
2019-01-20T11:03:46.557Z,66.61
2019-01-20T11:06:18.700Z,66.81
2019-01-20T11:08:51.082Z,67.08
2019-01-20T11:11:23.113Z,67.46
2019-01-20T11:13:55.180Z,67.38
2019-01-20T11:16:27.204Z,67.17
2019-01-20T11:18:59.250Z,67.44
2019-01-20T11:21:31.298Z,66.72
2019-01-20T11:24:03.414Z,66.86
2019-01-20T11:26:35.684Z,66.31
2019-01-20T11:29:07.667Z,66.66
2019-01-20T11:31:39.689Z,67.32
2019-01-20T11:34:11.688Z,67.47
2019-01-20T11:36:43.740Z,66.79
2019-01-20T11:39:15.744Z,65.20
2019-01-20T11:41:47.777Z,66.04
2019-01-20T11:44:19.784Z,65.86
2019-01-20T11:46:51.824Z,66.36
2019-01-20T11:49:23.886Z,65.97
2019-01-20T11:51:55.929Z,66.36
2019-01-20T11:54:27.970Z,65.96
2019-01-20T11:56:59.976Z,65.99
2019-01-20T11:59:31.973Z,65.87
2019-01-20T12:02:04.387Z,65.95
2019-01-20T12:04:37.725Z,65.75
2019-01-20T12:07:09.767Z,64.89
2019-01-20T12:09:41.785Z,64.52
2019-01-20T12:12:13.847Z,65.44
2019-01-20T12:14:45.822Z,64.64
2019-01-20T12:17:17.825Z,64.07
2019-01-20T12:19:49.850Z,63.95
2019-01-20T12:22:21.908Z,64.57
2019-01-20T12:24:53.980Z,62.95
2019-01-20T12:27:26.096Z,63.72
2019-01-20T12:29:58.160Z,64.18
2019-01-20T12:32:30.254Z,64.56
2019-01-20T12:35:02.300Z,64.82
2019-01-20T12:37:34.360Z,65.28
2019-01-20T12:40:10.505Z,64.88
2019-01-20T12:42:42.548Z,64.35
2019-01-20T12:45:14.552Z,64.16
2019-01-20T12:47:46.580Z,64.51
2019-01-20T12:50:18.616Z,64.04
2019-01-20T12:52:51.361Z,63.77
2019-01-20T12:55:23.437Z,63.63
2019-01-20T12:57:55.546Z,64.19
2019-01-20T13:00:27.780Z,63.55
2019-01-20T13:02:59.800Z,63.54
2019-01-20T13:05:31.818Z,62.74
2019-01-20T13:08:04.386Z,62.31
2019-01-20T13:10:36.482Z,62.48
2019-01-20T13:13:08.514Z,62.90
2019-01-20T13:15:40.825Z,63.14
2019-01-20T13:18:12.879Z,63.39
2019-01-20T13:20:44.982Z,63.06
2019-01-20T13:23:17.017Z,62.46
2019-01-20T13:25:49.112Z,63.10
2019-01-20T13:28:21.168Z,63.17
2019-01-20T13:30:53.228Z,62.99
2019-01-20T13:33:25.306Z,62.33
2019-01-20T13:35:57.413Z,62.58
2019-01-20T13:38:29.459Z,63.00
2019-01-20T13:41:05.541Z,63.34
2019-01-20T13:43:37.583Z,62.35
2019-01-20T13:46:10.925Z,62.29
2019-01-20T13:48:43.037Z,61.93
2019-01-20T13:51:15.125Z,62.57
2019-01-20T13:53:47.198Z,61.52
2019-01-20T13:56:20.650Z,61.41
2019-01-20T13:58:52.682Z,61.45
2019-01-20T14:01:24.770Z,62.05
2019-01-20T14:03:56.925Z,62.02
2019-01-20T14:06:29.107Z,61.84
2019-01-20T14:09:01.347Z,61.60
2019-01-20T14:11:35.264Z,62.11
2019-01-20T14:14:07.302Z,63.12
2019-01-20T14:16:41.792Z,63.39
2019-01-20T14:19:13.907Z,63.77
2019-01-20T14:21:45.962Z,63.58
2019-01-20T14:24:17.980Z,63.16
2019-01-20T14:26:50.053Z,63.11
2019-01-20T14:29:22.083Z,62.52
2019-01-20T14:31:54.139Z,63.07
2019-01-20T14:34:26.204Z,62.45
2019-01-20T14:36:58.207Z,62.67
2019-01-20T14:39:30.222Z,62.62
2019-01-20T14:42:02.268Z,63.24
2019-01-20T14:44:34.258Z,63.28
2019-01-20T14:47:06.334Z,62.64
2019-01-20T14:49:38.372Z,62.83
2019-01-20T14:52:10.452Z,62.52
2019-01-20T14:54:42.483Z,63.23
2019-01-20T14:57:14.571Z,63.32
2019-01-20T14:59:46.611Z,63.16
2019-01-20T15:02:18.709Z,63.60
2019-01-20T15:04:50.786Z,64.00
2019-01-20T15:07:22.882Z,64.14
2019-01-20T15:09:54.981Z,64.54
2019-01-20T15:12:27.086Z,64.49
2019-01-20T15:14:59.158Z,64.58
2019-01-20T15:17:31.276Z,64.76
2019-01-20T15:20:04.966Z,64.87
2019-01-20T15:22:37.005Z,64.98
2019-01-20T15:25:10.111Z,64.59
2019-01-20T15:27:42.223Z,65.18
2019-01-20T15:30:17.832Z,65.35
2019-01-20T15:32:49.991Z,65.26
2019-01-20T15:35:22.287Z,65.59
2019-01-20T15:37:54.350Z,66.26
2019-01-20T15:40:26.387Z,66.29
2019-01-20T15:42:59.809Z,66.18
2019-01-20T15:45:31.891Z,65.98
2019-01-20T15:48:04.272Z,67.14
2019-01-20T15:50:36.305Z,66.92
2019-01-20T15:53:09.726Z,66.66
2019-01-20T15:55:41.806Z,66.97
2019-01-20T15:58:13.866Z,67.22
2019-01-20T16:00:45.930Z,66.93
2019-01-20T16:03:18.036Z,67.19
2019-01-20T16:05:50.096Z,67.01
2019-01-20T16:08:22.256Z,67.15
2019-01-20T16:10:54.368Z,66.90
2019-01-20T16:13:26.530Z,67.57
2019-01-20T16:15:58.573Z,67.59
2019-01-20T16:18:30.660Z,67.17
2019-01-20T16:21:03.271Z,67.33
2019-01-20T16:23:35.339Z,67.80
2019-01-20T16:26:07.405Z,67.63
2019-01-20T16:28:39.445Z,67.24
2019-01-20T16:31:11.520Z,67.23
2019-01-20T16:33:43.581Z,67.46
2019-01-20T16:36:15.665Z,67.60
2019-01-20T16:38:47.758Z,67.98
2019-01-20T16:41:20.309Z,68.29
2019-01-20T16:43:52.336Z,68.12
2019-01-20T16:46:24.511Z,67.81
2019-01-20T16:48:56.541Z,68.30
2019-01-20T16:51:28.668Z,68.52
2019-01-20T16:54:00.724Z,68.74
2019-01-20T16:56:32.850Z,69.15
2019-01-20T16:59:04.881Z,69.28
2019-01-20T17:01:37.141Z,68.68
2019-01-20T17:04:09.285Z,69.07
2019-01-20T17:06:41.312Z,68.23
2019-01-20T17:09:14.885Z,68.76
2019-01-20T17:11:47.266Z,68.80
2019-01-20T17:14:19.412Z,69.30
2019-01-20T17:16:51.556Z,68.96
2019-01-20T17:19:24.193Z,69.23
2019-01-20T17:21:56.218Z,69.09
2019-01-20T17:24:28.391Z,69.38
2019-01-20T17:27:00.437Z,69.14
2019-01-20T17:29:32.563Z,69.17
2019-01-20T17:32:04.765Z,69.35
2019-01-20T17:34:36.857Z,69.25
2019-01-20T17:37:08.914Z,69.41
2019-01-20T17:39:41.143Z,69.32
2019-01-20T17:42:13.274Z,69.39
2019-01-20T17:44:45.486Z,68.84
2019-01-20T17:47:17.537Z,68.38
2019-01-20T17:49:49.650Z,68.50
2019-01-20T17:52:21.821Z,68.21
2019-01-20T17:54:53.953Z,69.10
2019-01-20T17:57:26.051Z,69.44
2019-01-20T17:59:58.164Z,69.82
2019-01-20T18:02:30.309Z,69.57
2019-01-20T18:05:03.135Z,68.88
2019-01-20T18:07:35.191Z,69.20
2019-01-20T18:10:08.789Z,69.68
2019-01-20T18:12:40.911Z,69.35
2019-01-20T18:15:14.448Z,69.87
2019-01-20T18:17:46.492Z,70.12
2019-01-20T18:20:20.666Z,70.19
2019-01-20T18:22:52.745Z,70.36
2019-01-20T18:25:25.558Z,70.01
2019-01-20T18:27:57.568Z,70.69
2019-01-20T18:30:30.099Z,70.33
2019-01-20T18:33:02.168Z,70.21
2019-01-20T18:35:34.314Z,70.60
2019-01-20T18:38:06.376Z,70.76
2019-01-20T18:40:38.518Z,70.37
2019-01-20T18:43:10.558Z,70.75
2019-01-20T18:45:43.068Z,70.90
2019-01-20T18:48:15.173Z,71.05
2019-01-20T18:50:47.414Z,70.48
2019-01-20T18:53:19.519Z,70.84
2019-01-20T18:55:51.622Z,71.38
2019-01-20T18:58:23.771Z,71.37
2019-01-20T19:00:55.995Z,71.07
2019-01-20T19:03:28.148Z,71.25
2019-01-20T19:06:00.202Z,70.92
2019-01-20T19:08:32.335Z,70.69
2019-01-20T19:11:04.401Z,70.63
2019-01-20T19:13:36.589Z,71.15
2019-01-20T19:16:09.211Z,70.81
2019-01-20T19:18:41.511Z,71.05
2019-01-20T19:21:13.539Z,71.55
2019-01-20T19:23:45.758Z,71.53
2019-01-20T19:26:17.808Z,71.21
2019-01-20T19:28:50.001Z,70.95
2019-01-20T19:31:22.056Z,70.65
2019-01-20T19:33:54.188Z,70.80
2019-01-20T19:36:26.256Z,70.55
2019-01-20T19:38:58.360Z,70.37
2019-01-20T19:41:30.391Z,70.87
2019-01-20T19:44:02.601Z,71.23
2019-01-20T19:46:34.680Z,71.20
2019-01-20T19:49:06.882Z,71.44
2019-01-20T19:51:38.876Z,71.59
2019-01-20T19:54:11.130Z,71.39
2019-01-20T19:56:43.181Z,71.18
2019-01-20T19:59:15.364Z,71.53
2019-01-20T20:01:47.511Z,71.54
2019-01-20T20:04:19.681Z,71.27
2019-01-20T20:06:51.727Z,71.56
2019-01-20T20:09:23.880Z,71.44
2019-01-20T20:11:55.992Z,70.87
2019-01-20T20:14:28.176Z,70.80
2019-01-20T20:17:00.304Z,71.19
2019-01-20T20:19:32.432Z,71.22
2019-01-20T20:22:04.478Z,71.24
2019-01-20T20:24:36.602Z,71.28
2019-01-20T20:27:08.706Z,70.97
2019-01-20T20:29:40.776Z,70.20
2019-01-20T20:32:12.852Z,70.31
2019-01-20T20:34:44.985Z,70.55
2019-01-20T20:37:17.085Z,70.88
2019-01-20T20:39:49.251Z,70.32
2019-01-20T20:42:21.314Z,70.40
2019-01-20T20:44:53.555Z,70.82
2019-01-20T20:47:25.773Z,70.73
2019-01-20T20:49:57.948Z,70.18
2019-01-20T20:52:30.104Z,69.73
2019-01-20T20:55:02.234Z,69.93
2019-01-20T20:57:34.394Z,70.43
2019-01-20T21:00:10.582Z,70.50
2019-01-20T21:02:42.887Z,70.11
2019-01-20T21:05:15.057Z,69.96
2019-01-20T21:07:47.214Z,69.61
2019-01-20T21:10:19.284Z,69.98
2019-01-20T21:12:51.407Z,70.31
2019-01-20T21:15:23.441Z,69.48
2019-01-20T21:17:55.640Z,69.58
2019-01-20T21:20:27.704Z,70.34
2019-01-20T21:22:59.870Z,70.53
2019-01-20T21:25:31.893Z,70.41
2019-01-20T21:28:03.985Z,70.64
2019-01-20T21:30:36.033Z,70.50
2019-01-20T21:33:08.190Z,70.47
2019-01-20T21:35:40.267Z,70.29
2019-01-20T21:38:12.337Z,69.53
2019-01-20T21:40:44.417Z,69.70
2019-01-20T21:43:16.443Z,69.81
2019-01-20T21:45:48.522Z,70.12
2019-01-20T21:48:20.551Z,69.86
2019-01-20T21:50:52.587Z,69.29
2019-01-20T21:53:24.648Z,69.33
2019-01-20T21:55:56.727Z,69.43
2019-01-20T21:58:28.770Z,69.86
2019-01-20T22:01:00.806Z,69.82
2019-01-20T22:03:32.850Z,70.02
2019-01-20T22:06:04.897Z,69.72
2019-01-20T22:08:36.943Z,69.66
2019-01-20T22:11:08.938Z,69.11
2019-01-20T22:13:41.006Z,69.22
2019-01-20T22:16:13.006Z,69.69
2019-01-20T22:18:45.075Z,69.29
2019-01-20T22:21:17.067Z,69.29
2019-01-20T22:23:49.120Z,69.46
2019-01-20T22:26:21.159Z,69.66
2019-01-20T22:28:53.205Z,69.78
2019-01-20T22:31:25.246Z,70.05
2019-01-20T22:33:57.297Z,69.92
2019-01-20T22:36:29.289Z,69.93
2019-01-20T22:39:01.347Z,69.70
2019-01-20T22:41:33.379Z,69.74
2019-01-20T22:44:05.390Z,69.92
2019-01-20T22:46:37.441Z,69.91
2019-01-20T22:49:09.434Z,69.82
2019-01-20T22:51:41.466Z,69.82
2019-01-20T22:54:13.506Z,69.77
2019-01-20T22:56:45.518Z,69.42
2019-01-20T22:59:17.544Z,69.20
2019-01-20T23:01:49.634Z,69.07
2019-01-20T23:04:21.690Z,69.37
2019-01-20T23:06:53.696Z,69.99
2019-01-20T23:09:25.676Z,70.07
2019-01-20T23:12:17.145Z,70.24
2019-01-20T23:14:49.111Z,69.74
2019-01-20T23:17:21.159Z,69.47
2019-01-20T23:19:53.175Z,69.63
2019-01-20T23:22:25.192Z,69.69
2019-01-20T23:24:57.212Z,69.55
2019-01-20T23:27:29.189Z,69.84
2019-01-20T23:30:01.181Z,69.41
2019-01-20T23:32:33.232Z,69.18
2019-01-20T23:35:05.313Z,69.21
2019-01-20T23:37:37.371Z,69.64
2019-01-20T23:40:09.442Z,69.39
2019-01-20T23:42:41.451Z,69.17
2019-01-20T23:45:13.827Z,69.54
2019-01-20T23:47:45.921Z,69.72
2019-01-20T23:50:17.933Z,69.45
2019-01-20T23:52:50.075Z,69.19
2019-01-20T23:55:22.640Z,69.43
2019-01-20T23:57:54.645Z,69.28
